createdAt,value
2022-09-26T00:01:44.326Z,9.07
2022-09-26T00:04:22.727Z,5.43
2022-09-26T00:06:57.071Z,5.43
2022-09-26T00:09:28.160Z,5.57
2022-09-26T00:11:56.434Z,4.93
2022-09-26T00:14:27.350Z,4.50
2022-09-26T00:16:55.911Z,7.33
2022-09-26T00:19:25.453Z,6.43
2022-09-26T00:21:55.437Z,5.33
2022-09-26T00:24:23.769Z,11.43
2022-09-26T00:26:52.687Z,23.53
2022-09-26T00:29:20.974Z,18.77
2022-09-26T00:31:49.370Z,82.73
2022-09-26T00:34:20.442Z,119.60
2022-09-26T00:36:48.778Z,114.70
2022-09-26T00:39:19.320Z,74.53
2022-09-26T00:41:47.692Z,81.67
2022-09-26T00:44:43.621Z,50.93
2022-09-26T00:47:29.240Z,110.00
2022-09-26T00:50:01.998Z,112.93
2022-09-26T00:52:34.849Z,50.03
2022-09-26T00:55:07.357Z,68.70
2022-09-26T00:57:41.868Z,47.03
2022-09-26T01:00:15.146Z,30.63
2022-09-26T01:02:45.385Z,12.40
2022-09-26T01:05:17.426Z,22.53
2022-09-26T01:07:46.569Z,6.90
2022-09-26T01:10:17.808Z,8.27
2022-09-26T01:12:46.043Z,17.40
2022-09-26T01:15:14.494Z,20.63
2022-09-26T01:17:45.837Z,10.37
2022-09-26T01:20:26.557Z,13.30
2022-09-26T01:23:43.688Z,14.13
2022-09-26T01:26:50.442Z,8.40
2022-09-26T01:29:37.085Z,17.87
2022-09-26T01:32:32.915Z,7.30
2022-09-26T01:35:08.715Z,12.03
2022-09-26T01:37:46.865Z,54.97
2022-09-26T01:40:23.217Z,10.47
2022-09-26T01:43:06.040Z,17.13
2022-09-26T01:45:44.063Z,36.60
2022-09-26T01:48:18.571Z,25.90
2022-09-26T01:50:52.224Z,21.73
2022-09-26T01:53:25.633Z,43.63
2022-09-26T01:55:58.111Z,14.23
2022-09-26T01:58:30.816Z,11.13
2022-09-26T02:01:03.498Z,9.13
2022-09-26T02:03:38.157Z,30.20
2022-09-26T02:06:11.712Z,13.17
2022-09-26T02:08:43.402Z,19.57
2022-09-26T02:11:17.415Z,24.30
2022-09-26T02:13:52.082Z,24.27
2022-09-26T02:16:27.353Z,21.00
2022-09-26T02:19:00.866Z,15.27
2022-09-26T02:21:29.287Z,23.63
2022-09-26T02:23:57.583Z,22.23
2022-09-26T02:26:26.413Z,31.80
2022-09-26T02:28:54.572Z,15.63
2022-09-26T02:31:27.517Z,48.90
2022-09-26T02:33:58.928Z,23.07
2022-09-26T02:36:27.361Z,82.30
2022-09-26T02:38:55.465Z,54.43
2022-09-26T02:41:30.429Z,16.63
2022-09-26T02:44:22.478Z,22.57
2022-09-26T02:47:19.306Z,39.63
2022-09-26T02:50:21.862Z,16.63
2022-09-26T02:53:01.352Z,29.00
2022-09-26T02:55:41.360Z,25.87
2022-09-26T02:58:19.273Z,6.17
2022-09-26T03:01:00.989Z,4.43
2022-09-26T03:03:35.346Z,9.47
2022-09-26T03:06:10.750Z,15.20
2022-09-26T03:08:44.301Z,14.23
2022-09-26T03:11:17.096Z,11.10
2022-09-26T03:13:47.795Z,8.33
2022-09-26T03:16:16.577Z,26.83
2022-09-26T03:18:55.223Z,10.93
2022-09-26T03:21:25.687Z,17.63
2022-09-26T03:23:53.796Z,5.70
2022-09-26T03:26:24.864Z,36.30
2022-09-26T03:28:53.227Z,15.90
2022-09-26T03:31:22.527Z,14.33
2022-09-26T03:33:51.127Z,9.27
2022-09-26T03:36:19.873Z,25.17
2022-09-26T03:38:49.988Z,28.53
2022-09-26T03:41:18.687Z,34.23
2022-09-26T03:43:47.030Z,26.23
2022-09-26T03:46:16.030Z,69.27
2022-09-26T03:48:44.804Z,66.37
2022-09-26T03:51:14.958Z,46.30
2022-09-26T03:53:45.596Z,38.03
2022-09-26T03:56:17.151Z,188.37
2022-09-26T03:58:47.000Z,53.37
2022-09-26T04:01:17.637Z,62.83
2022-09-26T04:03:50.515Z,89.13
2022-09-26T04:06:21.342Z,42.90
2022-09-26T04:08:51.931Z,37.53
2022-09-26T04:11:24.812Z,25.23
2022-09-26T04:13:54.221Z,52.43
2022-09-26T04:16:24.295Z,51.23
2022-09-26T04:18:58.064Z,31.33
2022-09-26T04:21:27.510Z,33.43
2022-09-26T04:23:56.789Z,36.13
2022-09-26T04:26:26.617Z,66.53
2022-09-26T04:28:57.315Z,30.90
2022-09-26T04:31:27.868Z,37.30
2022-09-26T04:33:56.453Z,49.07
2022-09-26T04:36:24.945Z,67.37
2022-09-26T04:38:53.189Z,49.70
2022-09-26T04:41:23.087Z,41.83
2022-09-26T04:43:55.644Z,46.13
2022-09-26T04:46:30.180Z,67.47
2022-09-26T04:49:01.804Z,27.90
2022-09-26T04:51:31.693Z,53.13
2022-09-26T04:54:00.413Z,74.50
2022-09-26T04:56:30.746Z,71.87
2022-09-26T04:59:01.189Z,28.80
2022-09-26T05:01:29.874Z,22.47
2022-09-26T05:03:58.559Z,24.40
2022-09-26T05:06:27.161Z,30.37
2022-09-26T05:08:55.402Z,27.10
2022-09-26T05:11:24.715Z,21.77
2022-09-26T05:13:53.923Z,48.30
2022-09-26T05:16:24.231Z,32.83
2022-09-26T05:18:52.958Z,22.90
2022-09-26T05:21:21.529Z,37.57
2022-09-26T05:24:07.359Z,28.73
2022-09-26T05:26:43.280Z,24.73
2022-09-26T05:29:12.339Z,39.73
2022-09-26T05:31:43.741Z,25.23
2022-09-26T05:34:19.924Z,39.63
2022-09-26T05:36:49.618Z,33.37
2022-09-26T05:39:31.686Z,38.17
2022-09-26T05:42:00.851Z,35.43
2022-09-26T05:44:31.032Z,60.97
2022-09-26T05:47:01.494Z,35.30
2022-09-26T05:49:29.870Z,31.53
2022-09-26T05:51:58.633Z,30.47
2022-09-26T05:54:26.943Z,26.87
2022-09-26T05:56:56.251Z,27.57
2022-09-26T05:59:26.269Z,26.53
2022-09-26T06:01:55.092Z,26.30
2022-09-26T06:04:24.872Z,28.23
2022-09-26T06:06:53.004Z,25.20
2022-09-26T06:09:21.304Z,27.57
2022-09-26T06:11:50.252Z,27.60
2022-09-26T06:14:18.689Z,25.80
2022-09-26T06:16:47.214Z,29.03
2022-09-26T06:19:18.443Z,29.63
2022-09-26T06:21:52.241Z,28.17
2022-09-26T06:24:22.926Z,30.73
2022-09-26T06:26:51.383Z,28.83
2022-09-26T06:29:20.242Z,27.60
2022-09-26T06:31:48.699Z,27.57
2022-09-26T06:34:16.911Z,28.23
2022-09-26T06:36:47.144Z,26.80
2022-09-26T06:39:18.015Z,27.70
2022-09-26T06:41:46.224Z,28.20
2022-09-26T06:44:14.730Z,28.60
2022-09-26T06:46:43.711Z,28.50
2022-09-26T06:49:12.226Z,30.97
2022-09-26T06:51:41.386Z,29.13
2022-09-26T06:54:10.425Z,29.40
2022-09-26T06:56:40.484Z,27.80
2022-09-26T06:59:08.930Z,29.87
2022-09-26T07:01:37.421Z,28.10
2022-09-26T07:04:06.282Z,30.23
2022-09-26T07:06:35.138Z,28.47
2022-09-26T07:09:07.457Z,33.07
2022-09-26T07:12:13.081Z,25.97
2022-09-26T07:14:34.862Z,26.53
2022-09-26T07:17:03.277Z,29.07
2022-09-26T07:19:31.845Z,25.00
2022-09-26T07:22:00.257Z,26.90
2022-09-26T07:24:28.308Z,23.10
2022-09-26T07:26:58.161Z,24.63
2022-09-26T07:29:27.224Z,28.77
2022-09-26T07:31:55.655Z,26.17
2022-09-26T07:34:25.266Z,23.70
2022-09-26T07:36:54.375Z,22.53
2022-09-26T07:39:23.195Z,22.30
2022-09-26T07:41:51.752Z,24.63
2022-09-26T07:47:29.607Z,23.33
2022-09-26T07:50:15.257Z,22.70
2022-09-26T07:52:44.802Z,16.67
2022-09-26T07:55:17.030Z,20.27
2022-09-26T07:57:48.613Z,17.13
2022-09-26T08:00:23.623Z,18.67
2022-09-26T08:02:53.060Z,19.17
2022-09-26T08:05:24.528Z,19.50
2022-09-26T08:07:53.106Z,21.07
2022-09-26T08:10:24.170Z,17.10
2022-09-26T08:12:52.263Z,23.87
2022-09-26T08:15:22.482Z,20.20
2022-09-26T08:17:52.100Z,24.03
2022-09-26T08:20:20.783Z,17.30
2022-09-26T08:22:49.644Z,15.27
2022-09-26T08:25:18.358Z,15.07
2022-09-26T08:27:46.799Z,16.70
2022-09-26T08:30:15.254Z,13.27
2022-09-26T08:32:45.268Z,14.23
2022-09-26T08:35:15.143Z,12.43
2022-09-26T08:37:43.241Z,11.27
2022-09-26T08:40:12.669Z,10.87
2022-09-26T08:42:53.751Z,10.03
2022-09-26T08:45:57.786Z,9.30
2022-09-26T08:48:43.113Z,12.83
2022-09-26T08:51:28.274Z,13.70
2022-09-26T08:54:03.676Z,13.90
2022-09-26T08:56:36.445Z,13.87
2022-09-26T08:59:13.544Z,12.53
2022-09-26T09:01:46.910Z,11.40
2022-09-26T09:04:22.276Z,10.77
2022-09-26T09:07:00.260Z,10.60
2022-09-26T09:09:28.609Z,10.87
2022-09-26T09:12:09.977Z,11.23
2022-09-26T09:15:20.404Z,14.53
2022-09-26T09:17:56.544Z,15.63
2022-09-26T09:20:40.266Z,11.30
2022-09-26T09:23:23.842Z,12.07
2022-09-26T09:29:10.360Z,9.93
2022-09-26T09:31:42.294Z,6.63
2022-09-26T09:34:16.892Z,2.13
2022-09-26T09:36:49.662Z,1.33
2022-09-26T09:39:28.159Z,5.93
2022-09-26T09:42:01.512Z,2.87
2022-09-26T09:44:45.773Z,3.63
2022-09-26T09:47:16.502Z,3.00
2022-09-26T09:49:46.043Z,3.53
2022-09-26T09:52:42.666Z,2.27
2022-09-26T09:55:32.299Z,1.67
2022-09-26T09:58:20.136Z,5.47
2022-09-26T10:01:00.882Z,6.07
2022-09-26T10:03:37.959Z,10.17
2022-09-26T10:06:44.188Z,5.07
2022-09-26T10:09:38.584Z,2.90
2022-09-26T10:11:52.667Z,2.83
2022-09-26T10:14:31.595Z,2.50
2022-09-26T10:17:21.427Z,1.57
2022-09-26T10:19:51.665Z,2.93
2022-09-26T10:22:26.252Z,1.77
2022-09-26T10:25:04.395Z,3.83
2022-09-26T10:27:39.109Z,2.53
2022-09-26T10:30:26.765Z,2.50
2022-09-26T10:32:59.052Z,3.67
2022-09-26T10:35:29.892Z,1.97
2022-09-26T10:38:03.518Z,3.43
2022-09-26T10:40:48.034Z,2.00
2022-09-26T10:43:30.816Z,1.73
2022-09-26T10:46:10.432Z,3.93
2022-09-26T10:48:49.061Z,3.63
2022-09-26T10:51:29.219Z,3.13
2022-09-26T10:54:05.944Z,1.63
2022-09-26T10:56:45.581Z,3.83
2022-09-26T10:59:17.838Z,4.90
2022-09-26T11:01:51.726Z,1.90
2022-09-26T11:04:38.958Z,2.50
2022-09-26T11:07:10.113Z,2.37
2022-09-26T11:09:39.897Z,2.87
2022-09-26T11:12:27.780Z,2.77
2022-09-26T11:15:00.367Z,3.07
2022-09-26T11:17:48.129Z,4.20
2022-09-26T11:20:36.884Z,3.50
2022-09-26T11:23:19.271Z,4.27
2022-09-26T11:26:00.560Z,2.73
2022-09-26T11:28:40.536Z,0.93
2022-09-26T11:31:19.224Z,3.07
2022-09-26T11:33:47.609Z,3.47
2022-09-26T11:36:47.363Z,3.53
2022-09-26T11:39:34.196Z,2.87
2022-09-26T11:42:16.608Z,3.43
2022-09-26T11:44:58.641Z,4.70
2022-09-26T11:47:56.602Z,2.20
2022-09-26T11:50:39.819Z,4.37
2022-09-26T11:53:33.678Z,4.00
2022-09-26T11:56:22.210Z,5.83
2022-09-26T11:59:02.442Z,3.30
2022-09-26T12:01:48.909Z,4.63
2022-09-26T12:04:56.272Z,38.33
2022-09-26T12:07:33.757Z,7.73
2022-09-26T12:10:19.738Z,3.17
2022-09-26T12:13:01.427Z,2.90
2022-09-26T12:15:39.878Z,4.37
2022-09-26T12:18:21.809Z,5.00
2022-09-26T12:21:11.979Z,2.13
2022-09-26T12:23:48.895Z,4.33
2022-09-26T12:26:22.606Z,3.97
2022-09-26T12:29:22.465Z,4.00
2022-09-26T12:32:04.966Z,4.00
2022-09-26T12:34:57.883Z,2.27
2022-09-26T12:37:45.359Z,4.27
2022-09-26T12:40:33.069Z,4.27
2022-09-26T12:43:21.876Z,3.60
2022-09-26T12:46:06.306Z,3.97
2022-09-26T12:49:02.234Z,4.87
2022-09-26T12:51:43.026Z,7.07
2022-09-26T12:54:46.068Z,4.07
2022-09-26T12:57:27.658Z,4.07
2022-09-26T13:00:12.919Z,2.80
2022-09-26T13:03:15.179Z,2.30
2022-09-26T13:06:13.729Z,2.63
2022-09-26T13:08:57.688Z,3.17
2022-09-26T13:11:35.948Z,2.03
2022-09-26T13:14:27.466Z,2.57
2022-09-26T13:17:10.375Z,4.37
2022-09-26T13:19:43.696Z,4.50
2022-09-26T13:22:27.578Z,3.97
2022-09-26T13:25:04.260Z,4.00
2022-09-26T13:27:38.552Z,2.57
2022-09-26T13:30:14.370Z,4.10
2022-09-26T13:32:53.562Z,2.73
2022-09-26T13:35:23.686Z,3.47
2022-09-26T13:38:09.722Z,5.07
2022-09-26T13:40:45.705Z,4.93
2022-09-26T13:43:26.274Z,6.13
2022-09-26T13:46:02.300Z,3.77
2022-09-26T13:48:50.367Z,3.17
2022-09-26T13:51:24.480Z,5.73
2022-09-26T13:54:00.195Z,5.30
2022-09-26T13:56:47.380Z,6.10
2022-09-26T13:59:36.134Z,5.07
2022-09-26T14:02:23.602Z,4.60
2022-09-26T14:04:53.932Z,2.73
2022-09-26T14:07:44.888Z,2.73
2022-09-26T14:10:22.485Z,2.20
2022-09-26T14:13:06.819Z,3.53
2022-09-26T14:16:01.510Z,2.57
2022-09-26T14:18:45.366Z,3.13
2022-09-26T14:21:24.252Z,3.03
2022-09-26T14:24:32.922Z,2.83
2022-09-26T14:27:28.747Z,4.07
2022-09-26T14:30:08.676Z,3.13
2022-09-26T14:32:39.489Z,3.40
2022-09-26T14:35:20.145Z,3.93
2022-09-26T14:37:51.651Z,2.97
2022-09-26T14:40:30.468Z,4.63
2022-09-26T14:43:04.487Z,3.03
2022-09-26T14:45:48.653Z,4.27
2022-09-26T14:48:36.051Z,4.07
2022-09-26T14:51:06.583Z,5.60
2022-09-26T14:53:41.643Z,4.03
2022-09-26T14:56:15.525Z,4.03
2022-09-26T14:58:52.837Z,3.73
2022-09-26T15:01:27.532Z,4.57
2022-09-26T15:03:59.012Z,5.23
2022-09-26T15:06:29.956Z,4.27
2022-09-26T15:08:59.858Z,4.00
2022-09-26T15:11:34.895Z,3.73
2022-09-26T15:14:15.205Z,4.00
2022-09-26T15:16:51.387Z,4.57
2022-09-26T15:19:24.489Z,4.63
2022-09-26T15:22:00.264Z,4.07
2022-09-26T15:24:30.458Z,5.77
2022-09-26T15:27:01.752Z,4.13
2022-09-26T15:29:30.205Z,6.93
2022-09-26T15:32:01.438Z,3.20
2022-09-26T15:34:35.208Z,4.93
2022-09-26T15:37:11.732Z,4.07
2022-09-26T15:39:42.862Z,4.40
2022-09-26T15:42:47.254Z,4.10
2022-09-26T15:45:30.728Z,5.73
2022-09-26T15:48:04.049Z,3.13
2022-09-26T15:50:41.931Z,7.93
2022-09-26T15:53:24.087Z,5.53
2022-09-26T15:55:57.599Z,4.27
2022-09-26T15:58:37.150Z,6.10
2022-09-26T16:01:06.649Z,4.93
2022-09-26T16:03:48.476Z,4.00
2022-09-26T16:06:25.696Z,3.20
2022-09-26T16:08:57.629Z,5.67
2022-09-26T16:11:28.004Z,5.23
2022-09-26T16:13:58.519Z,2.33
2022-09-26T16:16:32.134Z,5.50
2022-09-26T16:19:05.465Z,3.40
2022-09-26T16:21:37.775Z,8.43
2022-09-26T16:24:31.305Z,2.30
2022-09-26T16:26:59.471Z,2.97
2022-09-26T16:29:31.314Z,5.17
2022-09-26T16:31:59.842Z,4.67
2022-09-26T16:34:30.299Z,4.17
2022-09-26T16:37:00.102Z,6.73
2022-09-26T16:39:30.117Z,6.37
2022-09-26T16:42:03.187Z,8.20
2022-09-26T16:44:36.198Z,11.40
2022-09-26T16:47:06.980Z,13.30
2022-09-26T16:49:45.831Z,11.50
2022-09-26T16:52:31.415Z,7.63
2022-09-26T16:55:02.034Z,5.93
2022-09-26T16:57:32.522Z,4.20
2022-09-26T17:00:16.846Z,2.53
2022-09-26T17:02:45.872Z,7.83
2022-09-26T17:05:20.966Z,3.23
2022-09-26T17:07:50.929Z,4.73
2022-09-26T17:10:23.137Z,5.00
2022-09-26T17:12:53.206Z,4.13
2022-09-26T17:15:28.151Z,3.80
2022-09-26T17:18:01.867Z,3.57
2022-09-26T17:20:33.498Z,4.73
2022-09-26T17:23:21.974Z,5.07
2022-09-26T17:25:56.835Z,5.87
2022-09-26T17:28:31.505Z,7.43
2022-09-26T17:31:06.531Z,16.03
2022-09-26T17:33:39.477Z,7.53
2022-09-26T17:36:16.952Z,3.83
2022-09-26T17:38:45.448Z,4.30
2022-09-26T17:41:13.718Z,5.17
2022-09-26T17:43:42.848Z,3.57
2022-09-26T17:46:15.846Z,5.47
2022-09-26T17:48:45.433Z,3.00
2022-09-26T17:51:15.981Z,4.57
2022-09-26T17:53:50.934Z,5.00
2022-09-26T17:56:20.037Z,4.90
2022-09-26T17:58:49.817Z,6.57
2022-09-26T18:01:24.232Z,4.30
2022-09-26T18:03:55.774Z,5.20
2022-09-26T18:06:31.685Z,5.30
2022-09-26T18:09:07.722Z,5.30
2022-09-26T18:11:38.166Z,6.53
2022-09-26T18:14:08.255Z,7.70
2022-09-26T18:16:36.666Z,3.43
2022-09-26T18:19:07.898Z,3.67
2022-09-26T18:21:38.963Z,4.80
2022-09-26T18:24:18.610Z,7.57
2022-09-26T18:26:51.044Z,5.87
2022-09-26T18:29:27.776Z,4.03
2022-09-26T18:31:56.743Z,5.73
2022-09-26T18:34:26.179Z,4.80
2022-09-26T18:37:00.242Z,6.73
2022-09-26T18:39:29.307Z,5.70
2022-09-26T18:42:03.308Z,6.20
2022-09-26T18:44:35.519Z,4.07
2022-09-26T18:47:06.371Z,4.40
2022-09-26T18:49:37.737Z,5.60
2022-09-26T18:52:12.777Z,4.43
2022-09-26T18:54:44.116Z,2.77
2022-09-26T18:57:30.220Z,3.27
2022-09-26T18:59:59.316Z,3.40
2022-09-26T19:02:42.314Z,4.80
2022-09-26T19:05:16.649Z,6.30
2022-09-26T19:07:46.784Z,4.17
2022-09-26T19:10:17.554Z,5.00
2022-09-26T19:12:46.333Z,3.77
2022-09-26T19:15:15.775Z,3.17
2022-09-26T19:17:44.166Z,3.03
2022-09-26T19:20:12.545Z,4.30
2022-09-26T19:22:40.880Z,3.30
2022-09-26T19:25:12.233Z,2.73
2022-09-26T19:27:47.268Z,5.23
2022-09-26T19:30:17.949Z,3.53
2022-09-26T19:32:49.556Z,6.93
2022-09-26T19:35:24.307Z,5.17
2022-09-26T19:37:52.825Z,3.23
2022-09-26T19:40:23.848Z,3.20
2022-09-26T19:42:52.642Z,2.70
2022-09-26T19:45:22.010Z,3.13
2022-09-26T19:47:54.412Z,6.07
2022-09-26T19:50:24.248Z,3.83
2022-09-26T19:52:54.406Z,3.23
2022-09-26T19:55:25.957Z,4.17
2022-09-26T19:57:55.082Z,5.23
2022-09-26T20:00:23.979Z,2.67
2022-09-26T20:02:54.803Z,3.20
2022-09-26T20:05:26.110Z,2.17
2022-09-26T20:07:55.107Z,3.40
2022-09-26T20:10:28.815Z,2.93
2022-09-26T20:12:57.977Z,4.17
2022-09-26T20:15:29.049Z,2.27
2022-09-26T20:17:58.653Z,3.07
2022-09-26T20:20:28.808Z,3.63
2022-09-26T20:22:57.917Z,3.73
2022-09-26T20:25:31.931Z,4.50
2022-09-26T20:28:00.801Z,4.83
2022-09-26T20:30:47.160Z,3.83
2022-09-26T20:33:15.438Z,5.83
2022-09-26T20:35:47.894Z,3.83
2022-09-26T20:38:25.565Z,4.67
2022-09-26T20:41:00.852Z,5.53
2022-09-26T20:43:34.222Z,7.97
2022-09-26T20:46:06.496Z,7.50
2022-09-26T20:48:37.224Z,3.33
2022-09-26T20:51:08.531Z,3.53
2022-09-26T20:53:38.000Z,4.53
2022-09-26T20:56:14.220Z,4.53
2022-09-26T20:58:42.567Z,4.73
2022-09-26T21:01:16.937Z,6.43
2022-09-26T21:03:52.282Z,4.93
2022-09-26T21:06:23.700Z,6.37
2022-09-26T21:08:52.367Z,5.77
2022-09-26T21:11:26.294Z,4.50
2022-09-26T21:13:56.088Z,4.37
2022-09-26T21:16:24.523Z,5.07
2022-09-26T21:18:55.888Z,6.40
2022-09-26T21:21:27.503Z,7.20
2022-09-26T21:23:59.779Z,4.13
2022-09-26T21:26:31.736Z,7.80
2022-09-26T21:29:00.292Z,7.57
2022-09-26T21:31:32.283Z,3.60
2022-09-26T21:34:02.069Z,5.77
2022-09-26T21:36:35.018Z,3.53
2022-09-26T21:39:04.187Z,5.30
2022-09-26T21:41:35.910Z,4.40
2022-09-26T21:44:14.617Z,4.00
2022-09-26T21:46:46.435Z,3.53
2022-09-26T21:49:15.015Z,5.93
2022-09-26T21:51:45.431Z,5.03
2022-09-26T21:54:20.891Z,3.13
2022-09-26T21:56:53.673Z,7.73
2022-09-26T21:59:24.252Z,4.17
2022-09-26T22:01:52.815Z,3.83
2022-09-26T22:04:22.599Z,3.30
2022-09-26T22:06:53.632Z,4.13
2022-09-26T22:09:22.923Z,5.30
2022-09-26T22:11:53.048Z,4.47
2022-09-26T22:14:21.464Z,4.03
2022-09-26T22:16:50.222Z,4.00
2022-09-26T22:19:19.042Z,4.03
2022-09-26T22:21:47.691Z,4.20
2022-09-26T22:24:19.877Z,3.70
2022-09-26T22:26:53.905Z,4.27
2022-09-26T22:29:22.464Z,4.20
2022-09-26T22:31:56.363Z,5.77
2022-09-26T22:34:26.112Z,4.77
2022-09-26T22:36:54.696Z,4.13
2022-09-26T22:39:28.326Z,4.10
2022-09-26T22:42:04.455Z,4.93
2022-09-26T22:44:33.136Z,4.37
2022-09-26T22:47:02.514Z,3.13
2022-09-26T22:49:33.784Z,4.17
2022-09-26T22:52:03.213Z,3.70
2022-09-26T22:54:31.444Z,3.23
2022-09-26T22:56:59.870Z,4.63
2022-09-26T22:59:30.148Z,4.23
2022-09-26T23:01:59.137Z,3.53
2022-09-26T23:04:47.065Z,3.87
2022-09-26T23:07:16.665Z,6.43
2022-09-26T23:09:47.047Z,3.20
2022-09-26T23:12:16.253Z,4.53
2022-09-26T23:14:46.657Z,3.00
2022-09-26T23:17:15.493Z,4.53
2022-09-26T23:19:45.593Z,3.63
2022-09-26T23:22:18.929Z,3.17
2022-09-26T23:24:47.580Z,3.80
2022-09-26T23:27:16.426Z,3.37
2022-09-26T23:29:46.530Z,3.53
2022-09-26T23:32:14.724Z,4.53
2022-09-26T23:34:46.019Z,3.10
2022-09-26T23:37:14.412Z,4.57
2022-09-26T23:39:43.898Z,3.30
2022-09-26T23:42:12.272Z,6.27
2022-09-26T23:44:40.711Z,3.30
2022-09-26T23:47:10.723Z,4.13
2022-09-26T23:49:39.114Z,6.83
2022-09-26T23:52:07.391Z,4.03
2022-09-26T23:54:36.876Z,4.17
2022-09-26T23:57:05.549Z,4.90
2022-09-26T23:59:36.529Z,3.73
